East Jenkins, Kentucky
Current Conditions -  °F | °C
As of 11:55 PM on Wednesday 22 Oct 2014 (Local Time) from KLNP Reporting Station
Overcast Overcast  
Wind Chill: 40°   Ceiling: 400
Heat Index: 43°   Visibility: 10mi
Dew Point: 43°   Wind: 5mph
Humidity: 100%   Direction: 340°NNW
Pressure: 30.21"   Gusts: NA
Location:  37.1955°N, 82.6325°W
Report Text: KLNP 230355Z AUTO 34004KT 10SM BKN004 OVC017 06/06 A3021 RMK AO2
Loading
Personal Weather Stations






























Interactive Weather Map
Tropical Storm Tracking
New forecast layout! Learn more

10-Day Weather Forecast

Advertisements
Track Severe Weather on mobile